sensor_id;sensor_type;location;lat;lon;timestamp;pressure;altitude;pressure_sealevel;temperature;humidity
16777;BME280;8505;49.456;8.164;2023-06-14T00:02:04;99294.72;;;14.84;54.71
16777;BME280;8505;49.456;8.164;2023-06-14T00:04:34;99289.75;;;14.94;54.22
16777;BME280;8505;49.456;8.164;2023-06-14T00:07:03;99295.53;;;14.91;54.33
16777;BME280;8505;49.456;8.164;2023-06-14T00:09:32;99297.19;;;14.92;54.41
16777;BME280;8505;49.456;8.164;2023-06-14T00:12:00;99292.28;;;14.82;54.40
16777;BME280;8505;49.456;8.164;2023-06-14T00:14:28;99296.56;;;14.90;54.41
16777;BME280;8505;49.456;8.164;2023-06-14T00:16:56;99289.22;;;14.79;54.73
16777;BME280;8505;49.456;8.164;2023-06-14T00:19:25;99289.44;;;14.71;55.19
16777;BME280;8505;49.456;8.164;2023-06-14T00:21:53;99299.50;;;14.69;54.97
16777;BME280;8505;49.456;8.164;2023-06-14T00:24:21;99295.59;;;14.65;55.14
16777;BME280;8505;49.456;8.164;2023-06-14T00:26:50;99295.63;;;14.38;55.89
16777;BME280;8505;49.456;8.164;2023-06-14T00:29:18;99292.78;;;14.40;56.22
16777;BME280;8505;49.456;8.164;2023-06-14T00:31:46;99285.38;;;14.48;55.95
16777;BME280;8505;49.456;8.164;2023-06-14T00:34:14;99297.69;;;14.23;56.71
16777;BME280;8505;49.456;8.164;2023-06-14T00:36:41;99296.84;;;14.29;56.65
16777;BME280;8505;49.456;8.164;2023-06-14T00:39:09;99294.00;;;14.11;56.98
16777;BME280;8505;49.456;8.164;2023-06-14T00:41:38;99291.13;;;14.19;56.89
16777;BME280;8505;49.456;8.164;2023-06-14T00:44:08;99292.34;;;14.03;57.39
16777;BME280;8505;49.456;8.164;2023-06-14T00:46:35;99291.13;;;14.06;57.60
16777;BME280;8505;49.456;8.164;2023-06-14T00:49:03;99286.19;;;13.96;57.83
16777;BME280;8505;49.456;8.164;2023-06-14T00:51:31;99293.56;;;14.14;57.46
16777;BME280;8505;49.456;8.164;2023-06-14T00:53:59;99287.00;;;13.97;57.94
16777;BME280;8505;49.456;8.164;2023-06-14T00:56:26;99293.34;;;13.96;57.87
16777;BME280;8505;49.456;8.164;2023-06-14T00:58:55;99297.47;;;13.92;58.22
16777;BME280;8505;49.456;8.164;2023-06-14T01:01:24;99295.63;;;13.86;58.60
16777;BME280;8505;49.456;8.164;2023-06-14T01:03:52;99297.25;;;13.87;58.25
16777;BME280;8505;49.456;8.164;2023-06-14T01:06:27;99298.06;;;13.81;58.41
16777;BME280;8505;49.456;8.164;2023-06-14T01:09:03;99299.72;;;13.88;58.31
16777;BME280;8505;49.456;8.164;2023-06-14T01:11:50;99297.84;;;13.89;58.45
16777;BME280;8505;49.456;8.164;2023-06-14T01:14:19;99307.47;;;13.76;58.74
16777;BME280;8505;49.456;8.164;2023-06-14T01:16:50;99313.38;;;13.65;59.33
16777;BME280;8505;49.456;8.164;2023-06-14T01:19:20;99315.88;;;13.73;59.09
16777;BME280;8505;49.456;8.164;2023-06-14T01:21:52;99313.41;;;13.72;59.43
16777;BME280;8505;49.456;8.164;2023-06-14T01:24:21;99313.84;;;13.75;58.80
16777;BME280;8505;49.456;8.164;2023-06-14T01:26:53;99313.16;;;13.54;59.44
16777;BME280;8505;49.456;8.164;2023-06-14T01:29:24;99312.53;;;13.45;59.92
16777;BME280;8505;49.456;8.164;2023-06-14T01:31:54;99316.00;;;13.46;59.74
16777;BME280;8505;49.456;8.164;2023-06-14T01:34:22;99320.09;;;13.48;59.81
16777;BME280;8505;49.456;8.164;2023-06-14T01:36:50;99317.25;;;13.50;59.94
16777;BME280;8505;49.456;8.164;2023-06-14T01:39:21;99316.97;;;13.25;60.75
16777;BME280;8505;49.456;8.164;2023-06-14T01:41:50;99316.38;;;13.36;60.53
16777;BME280;8505;49.456;8.164;2023-06-14T01:44:19;99319.47;;;13.33;60.47
16777;BME280;8505;49.456;8.164;2023-06-14T01:46:48;99314.13;;;13.33;60.43
16777;BME280;8505;49.456;8.164;2023-06-14T01:49:16;99320.84;;;13.29;60.35
16777;BME280;8505;49.456;8.164;2023-06-14T01:51:43;99328.66;;;13.37;60.27
16777;BME280;8505;49.456;8.164;2023-06-14T01:54:11;99318.47;;;13.47;60.17
16777;BME280;8505;49.456;8.164;2023-06-14T01:56:40;99321.84;;;13.21;60.87
16777;BME280;8505;49.456;8.164;2023-06-14T01:59:08;99325.31;;;13.22;60.97
16777;BME280;8505;49.456;8.164;2023-06-14T02:01:36;99322.13;;;13.46;60.05
16777;BME280;8505;49.456;8.164;2023-06-14T02:04:04;99320.22;;;13.27;60.62
16777;BME280;8505;49.456;8.164;2023-06-14T02:06:32;99326.03;;;13.09;61.35
16777;BME280;8505;49.456;8.164;2023-06-14T02:09:01;99326.25;;;13.01;61.77
16777;BME280;8505;49.456;8.164;2023-06-14T02:11:29;99332.53;;;12.93;61.99
16777;BME280;8505;49.456;8.164;2023-06-14T02:13:58;99326.91;;;12.75;62.88
16777;BME280;8505;49.456;8.164;2023-06-14T02:16:27;99324.41;;;12.67;63.27
16777;BME280;8505;49.456;8.164;2023-06-14T02:18:56;99327.25;;;12.66;63.70
16777;BME280;8505;49.456;8.164;2023-06-14T02:21:24;99326.28;;;12.73;63.07
16777;BME280;8505;49.456;8.164;2023-06-14T02:23:52;99321.97;;;12.72;63.13
16777;BME280;8505;49.456;8.164;2023-06-14T02:26:19;99318.47;;;12.65;63.38
16777;BME280;8505;49.456;8.164;2023-06-14T02:28:47;99322.84;;;12.79;62.83
16777;BME280;8505;49.456;8.164;2023-06-14T02:31:16;99322.38;;;12.69;63.43
16777;BME280;8505;49.456;8.164;2023-06-14T02:33:44;99314.59;;;12.68;63.27
16777;BME280;8505;49.456;8.164;2023-06-14T02:36:12;99324.22;;;12.69;63.53
16777;BME280;8505;49.456;8.164;2023-06-14T02:38:39;99323.25;;;12.76;63.04
16777;BME280;8505;49.456;8.164;2023-06-14T02:41:07;99329.44;;;12.90;62.44
16777;BME280;8505;49.456;8.164;2023-06-14T02:43:35;99325.41;;;12.66;63.28
16777;BME280;8505;49.456;8.164;2023-06-14T02:46:03;99321.69;;;12.61;63.44
16777;BME280;8505;49.456;8.164;2023-06-14T02:48:33;99328.47;;;12.63;63.68
16777;BME280;8505;49.456;8.164;2023-06-14T02:51:01;99331.59;;;12.73;63.38
16777;BME280;8505;49.456;8.164;2023-06-14T02:53:28;99336.28;;;12.71;63.34
16777;BME280;8505;49.456;8.164;2023-06-14T02:55:56;99329.09;;;12.65;63.73
16777;BME280;8505;49.456;8.164;2023-06-14T02:58:24;99330.03;;;12.51;64.12
16777;BME280;8505;49.456;8.164;2023-06-14T03:00:52;99333.28;;;12.53;64.03
16777;BME280;8505;49.456;8.164;2023-06-14T03:03:20;99323.47;;;12.53;63.89
16777;BME280;8505;49.456;8.164;2023-06-14T03:05:52;99333.28;;;12.53;64.23
16777;BME280;8505;49.456;8.164;2023-06-14T03:08:21;99341.22;;;12.46;64.11
16777;BME280;8505;49.456;8.164;2023-06-14T03:10:53;99333.03;;;12.48;64.33
16777;BME280;8505;49.456;8.164;2023-06-14T03:13:22;99334.06;;;12.47;64.19
16777;BME280;8505;49.456;8.164;2023-06-14T03:15:50;99342.03;;;12.47;64.31
16777;BME280;8505;49.456;8.164;2023-06-14T03:18:18;99344.72;;;12.53;64.52
16777;BME280;8505;49.456;8.164;2023-06-14T03:20:54;99347.09;;;12.42;64.45
16777;BME280;8505;49.456;8.164;2023-06-14T03:23:23;99343.66;;;12.48;64.28
16777;BME280;8505;49.456;8.164;2023-06-14T03:25:52;99350.09;;;12.60;63.76
16777;BME280;8505;49.456;8.164;2023-06-14T03:28:20;99349.22;;;12.81;62.98
16777;BME280;8505;49.456;8.164;2023-06-14T03:30:47;99354.16;;;12.56;63.92
16777;BME280;8505;49.456;8.164;2023-06-14T03:33:15;99357.13;;;12.40;64.62
16777;BME280;8505;49.456;8.164;2023-06-14T03:35:43;99359.78;;;12.40;64.54
16777;BME280;8505;49.456;8.164;2023-06-14T03:38:12;99358.41;;;12.50;64.59
16777;BME280;8505;49.456;8.164;2023-06-14T03:40:40;99358.31;;;12.65;63.60
16777;BME280;8505;49.456;8.164;2023-06-14T03:43:08;99361.59;;;12.67;63.99
16777;BME280;8505;49.456;8.164;2023-06-14T03:45:36;99374.81;;;12.88;62.96
16777;BME280;8505;49.456;8.164;2023-06-14T03:48:04;99369.69;;;12.87;62.87
16777;BME280;8505;49.456;8.164;2023-06-14T03:50:33;99364.53;;;12.79;63.35
16777;BME280;8505;49.456;8.164;2023-06-14T03:53:04;99381.28;;;12.79;63.58
16777;BME280;8505;49.456;8.164;2023-06-14T03:55:33;99369.00;;;12.78;63.67
16777;BME280;8505;49.456;8.164;2023-06-14T03:58:04;99368.41;;;12.76;63.80
16777;BME280;8505;49.456;8.164;2023-06-14T04:00:32;99375.06;;;12.93;63.27
16777;BME280;8505;49.456;8.164;2023-06-14T04:03:00;99376.06;;;12.92;63.18
16777;BME280;8505;49.456;8.164;2023-06-14T04:05:30;99378.03;;;13.12;62.71
16777;BME280;8505;49.456;8.164;2023-06-14T04:07:58;99380.41;;;13.00;63.10
16777;BME280;8505;49.456;8.164;2023-06-14T04:10:27;99397.13;;;13.22;62.43
16777;BME280;8505;49.456;8.164;2023-06-14T04:12:56;99395.81;;;13.11;62.66
16777;BME280;8505;49.456;8.164;2023-06-14T04:15:24;99400.00;;;13.27;62.12
16777;BME280;8505;49.456;8.164;2023-06-14T04:17:56;99397.63;;;13.39;61.68
16777;BME280;8505;49.456;8.164;2023-06-14T04:20:24;99399.34;;;13.59;60.75
16777;BME280;8505;49.456;8.164;2023-06-14T04:22:52;99400.59;;;13.76;60.47
16777;BME280;8505;49.456;8.164;2023-06-14T04:25:23;99403.13;;;13.98;59.87
16777;BME280;8505;49.456;8.164;2023-06-14T04:27:53;99409.56;;;14.30;58.63
16777;BME280;8505;49.456;8.164;2023-06-14T04:30:23;99407.13;;;14.54;58.17
16777;BME280;8505;49.456;8.164;2023-06-14T04:32:52;99415.72;;;14.83;56.82
16777;BME280;8505;49.456;8.164;2023-06-14T04:35:22;99414.84;;;15.22;55.16
16777;BME280;8505;49.456;8.164;2023-06-14T04:37:51;99408.94;;;15.77;53.35
16777;BME280;8505;49.456;8.164;2023-06-14T04:40:20;99416.66;;;16.24;52.03
16777;BME280;8505;49.456;8.164;2023-06-14T04:42:47;99423.09;;;16.47;51.03
16777;BME280;8505;49.456;8.164;2023-06-14T04:45:17;99422.72;;;16.69;50.56
16777;BME280;8505;49.456;8.164;2023-06-14T04:47:46;99421.75;;;16.63;51.09
16777;BME280;8505;49.456;8.164;2023-06-14T04:50:14;99410.22;;;16.87;50.40
16777;BME280;8505;49.456;8.164;2023-06-14T04:52:44;99415.34;;;17.50;48.74
16777;BME280;8505;49.456;8.164;2023-06-14T04:55:12;99420.97;;;16.81;49.85
16777;BME280;8505;49.456;8.164;2023-06-14T04:57:40;99425.34;;;17.00;50.21
16777;BME280;8505;49.456;8.164;2023-06-14T05:00:09;99420.22;;;17.17;49.58
16777;BME280;8505;49.456;8.164;2023-06-14T05:02:38;99426.03;;;17.50;47.89
16777;BME280;8505;49.456;8.164;2023-06-14T05:05:08;99428.13;;;17.66;48.54
16777;BME280;8505;49.456;8.164;2023-06-14T05:07:37;99426.41;;;17.72;47.82
16777;BME280;8505;49.456;8.164;2023-06-14T05:10:08;99440.28;;;17.99;47.04
16777;BME280;8505;49.456;8.164;2023-06-14T05:12:36;99429.56;;;18.29;46.17
16777;BME280;8505;49.456;8.164;2023-06-14T05:15:05;99437.44;;;18.53;45.58
16777;BME280;8505;49.456;8.164;2023-06-14T05:17:35;99435.78;;;18.52;45.88
16777;BME280;8505;49.456;8.164;2023-06-14T05:20:04;99435.56;;;18.54;45.27
16777;BME280;8505;49.456;8.164;2023-06-14T05:22:34;99440.31;;;18.82;45.09
16777;BME280;8505;49.456;8.164;2023-06-14T05:25:02;99429.81;;;18.92;45.16
16777;BME280;8505;49.456;8.164;2023-06-14T05:27:30;99431.31;;;19.34;44.06
16777;BME280;8505;49.456;8.164;2023-06-14T05:29:58;99428.97;;;19.61;44.12
16777;BME280;8505;49.456;8.164;2023-06-14T05:32:25;99439.97;;;19.36;43.96
16777;BME280;8505;49.456;8.164;2023-06-14T05:34:53;99437.50;;;19.58;43.59
16777;BME280;8505;49.456;8.164;2023-06-14T05:37:21;99435.97;;;19.62;43.55
16777;BME280;8505;49.456;8.164;2023-06-14T05:39:50;99445.78;;;19.45;43.60
16777;BME280;8505;49.456;8.164;2023-06-14T05:42:18;99441.47;;;19.56;43.37
16777;BME280;8505;49.456;8.164;2023-06-14T05:44:46;99449.66;;;19.89;43.13
16777;BME280;8505;49.456;8.164;2023-06-14T05:47:14;99450.56;;;20.35;41.83
16777;BME280;8505;49.456;8.164;2023-06-14T05:49:41;99449.84;;;20.56;41.61
16777;BME280;8505;49.456;8.164;2023-06-14T05:52:09;99450.66;;;20.11;41.94
16777;BME280;8505;49.456;8.164;2023-06-14T05:54:39;99455.44;;;20.09;42.59
16777;BME280;8505;49.456;8.164;2023-06-14T05:57:10;99454.56;;;20.20;42.38
16777;BME280;8505;49.456;8.164;2023-06-14T05:59:38;99450.06;;;20.09;42.70
16777;BME280;8505;49.456;8.164;2023-06-14T06:02:06;99453.13;;;19.73;42.87
16777;BME280;8505;49.456;8.164;2023-06-14T06:04:34;99450.72;;;19.88;42.69
16777;BME280;8505;49.456;8.164;2023-06-14T06:07:02;99454.19;;;20.29;42.19
16777;BME280;8505;49.456;8.164;2023-06-14T06:09:32;99459.34;;;20.30;42.28
16777;BME280;8505;49.456;8.164;2023-06-14T06:12:00;99461.19;;;20.58;41.33
16777;BME280;8505;49.456;8.164;2023-06-14T06:14:29;99464.75;;;20.92;40.82
16777;BME280;8505;49.456;8.164;2023-06-14T06:16:57;99470.19;;;21.14;40.77
16777;BME280;8505;49.456;8.164;2023-06-14T06:19:25;99466.34;;;20.76;41.36
16777;BME280;8505;49.456;8.164;2023-06-14T06:21:53;99475.09;;;21.33;41.47
16777;BME280;8505;49.456;8.164;2023-06-14T06:24:21;99461.31;;;21.73;40.78
16777;BME280;8505;49.456;8.164;2023-06-14T06:26:49;99471.75;;;21.48;40.18
16777;BME280;8505;49.456;8.164;2023-06-14T06:29:17;99473.56;;;21.21;40.72
16777;BME280;8505;49.456;8.164;2023-06-14T06:31:46;99480.13;;;21.30;40.94
16777;BME280;8505;49.456;8.164;2023-06-14T06:34:14;99483.22;;;21.38;40.70
16777;BME280;8505;49.456;8.164;2023-06-14T06:36:42;99480.97;;;21.91;39.75
16777;BME280;8505;49.456;8.164;2023-06-14T06:39:10;99472.16;;;22.22;39.50
16777;BME280;8505;49.456;8.164;2023-06-14T06:41:38;99483.16;;;21.72;39.40
16777;BME280;8505;49.456;8.164;2023-06-14T06:44:06;99489.09;;;21.52;40.23
16777;BME280;8505;49.456;8.164;2023-06-14T06:46:36;99490.63;;;21.48;40.12
16777;BME280;8505;49.456;8.164;2023-06-14T06:49:08;99494.53;;;21.19;40.60
16777;BME280;8505;49.456;8.164;2023-06-14T06:51:41;99495.56;;;21.34;41.23
16777;BME280;8505;49.456;8.164;2023-06-14T06:54:10;99493.25;;;21.60;39.79
16777;BME280;8505;49.456;8.164;2023-06-14T06:56:38;99496.25;;;21.63;39.85
16777;BME280;8505;49.456;8.164;2023-06-14T06:59:06;99488.81;;;22.14;39.18
16777;BME280;8505;49.456;8.164;2023-06-14T07:01:33;99494.22;;;22.14;38.67
16777;BME280;8505;49.456;8.164;2023-06-14T07:04:03;99497.28;;;22.01;38.93
16777;BME280;8505;49.456;8.164;2023-06-14T07:06:33;99496.97;;;22.19;39.82
16777;BME280;8505;49.456;8.164;2023-06-14T07:09:01;99502.84;;;22.38;39.53
16777;BME280;8505;49.456;8.164;2023-06-14T07:11:31;99507.00;;;22.50;38.17
16777;BME280;8505;49.456;8.164;2023-06-14T07:13:59;99501.91;;;22.54;37.98
16777;BME280;8505;49.456;8.164;2023-06-14T07:16:27;99515.44;;;22.59;38.26
16777;BME280;8505;49.456;8.164;2023-06-14T07:18:55;99512.28;;;22.67;37.78
16777;BME280;8505;49.456;8.164;2023-06-14T07:21:23;99514.56;;;23.07;37.18
16777;BME280;8505;49.456;8.164;2023-06-14T07:23:53;99513.47;;;22.49;37.86
16777;BME280;8505;49.456;8.164;2023-06-14T07:26:22;99516.94;;;22.45;38.18
16777;BME280;8505;49.456;8.164;2023-06-14T07:28:50;99526.13;;;23.03;37.58
16777;BME280;8505;49.456;8.164;2023-06-14T07:31:18;99521.06;;;23.06;37.32
16777;BME280;8505;49.456;8.164;2023-06-14T07:33:46;99523.41;;;23.34;36.43
16777;BME280;8505;49.456;8.164;2023-06-14T07:36:14;99518.94;;;23.13;36.79
16777;BME280;8505;49.456;8.164;2023-06-14T07:38:42;99511.25;;;23.32;36.41
16777;BME280;8505;49.456;8.164;2023-06-14T07:41:11;99513.63;;;23.28;37.32
16777;BME280;8505;49.456;8.164;2023-06-14T07:43:39;99512.44;;;23.93;36.37
16777;BME280;8505;49.456;8.164;2023-06-14T07:46:06;99513.72;;;24.38;34.72
16777;BME280;8505;49.456;8.164;2023-06-14T07:48:36;99517.53;;;24.82;33.90
16777;BME280;8505;49.456;8.164;2023-06-14T07:51:04;99524.34;;;24.80;34.27
16777;BME280;8505;49.456;8.164;2023-06-14T07:53:32;99515.88;;;24.41;33.72
16777;BME280;8505;49.456;8.164;2023-06-14T07:55:59;99520.00;;;23.91;35.92
16777;BME280;8505;49.456;8.164;2023-06-14T07:58:30;99518.00;;;23.76;35.24
16777;BME280;8505;49.456;8.164;2023-06-14T08:00:58;99520.91;;;23.23;36.76
16777;BME280;8505;49.456;8.164;2023-06-14T08:03:26;99515.06;;;23.78;35.06
16777;BME280;8505;49.456;8.164;2023-06-14T08:05:54;99517.19;;;24.28;34.58
16777;BME280;8505;49.456;8.164;2023-06-14T08:08:22;99512.09;;;23.79;34.74
16777;BME280;8505;49.456;8.164;2023-06-14T08:10:50;99512.91;;;24.47;34.36
16777;BME280;8505;49.456;8.164;2023-06-14T08:13:18;99513.75;;;24.73;33.99
16777;BME280;8505;49.456;8.164;2023-06-14T08:15:47;99521.72;;;24.12;34.26
16777;BME280;8505;49.456;8.164;2023-06-14T08:18:15;99516.94;;;24.45;34.53
16777;BME280;8505;49.456;8.164;2023-06-14T08:20:43;99505.06;;;24.56;33.06
16777;BME280;8505;49.456;8.164;2023-06-14T08:23:11;99508.50;;;24.26;33.89
16777;BME280;8505;49.456;8.164;2023-06-14T08:25:39;99513.41;;;24.39;34.04
16777;BME280;8505;49.456;8.164;2023-06-14T08:28:07;99515.63;;;24.52;33.95
16777;BME280;8505;49.456;8.164;2023-06-14T08:30:35;99514.78;;;24.42;33.49
16777;BME280;8505;49.456;8.164;2023-06-14T08:33:04;99511.31;;;24.82;33.01
16777;BME280;8505;49.456;8.164;2023-06-14T08:35:43;99518.63;;;24.76;33.04
16777;BME280;8505;49.456;8.164;2023-06-14T08:38:11;99508.34;;;25.19;32.24
16777;BME280;8505;49.456;8.164;2023-06-14T08:40:40;99510.25;;;25.33;32.82
16777;BME280;8505;49.456;8.164;2023-06-14T08:43:09;99508.31;;;25.64;31.86
16777;BME280;8505;49.456;8.164;2023-06-14T08:45:37;99509.47;;;24.92;31.89
16777;BME280;8505;49.456;8.164;2023-06-14T08:48:07;99509.97;;;24.79;31.72
16777;BME280;8505;49.456;8.164;2023-06-14T08:50:36;99517.25;;;24.64;32.14
16777;BME280;8505;49.456;8.164;2023-06-14T08:53:11;99514.34;;;25.01;32.07
16777;BME280;8505;49.456;8.164;2023-06-14T08:55:46;99515.94;;;25.07;31.16
16777;BME280;8505;49.456;8.164;2023-06-14T08:58:15;99519.63;;;25.97;30.33
16777;BME280;8505;49.456;8.164;2023-06-14T09:00:43;99507.56;;;26.18;29.32
16777;BME280;8505;49.456;8.164;2023-06-14T09:03:12;99521.38;;;25.02;29.98
16777;BME280;8505;49.456;8.164;2023-06-14T09:05:41;99511.06;;;25.59;30.91
16777;BME280;8505;49.456;8.164;2023-06-14T09:08:10;99524.06;;;25.37;31.44
16777;BME280;8505;49.456;8.164;2023-06-14T09:10:40;99517.53;;;25.63;30.18
16777;BME280;8505;49.456;8.164;2023-06-14T09:13:08;99523.56;;;25.10;29.92
16777;BME280;8505;49.456;8.164;2023-06-14T09:15:36;99526.50;;;25.54;28.91
16777;BME280;8505;49.456;8.164;2023-06-14T09:18:03;99529.16;;;25.84;27.53
16777;BME280;8505;49.456;8.164;2023-06-14T09:20:34;99525.47;;;26.24;25.92
16777;BME280;8505;49.456;8.164;2023-06-14T09:23:02;99524.25;;;25.91;24.63
16777;BME280;8505;49.456;8.164;2023-06-14T09:25:32;99529.25;;;25.23;24.51
16777;BME280;8505;49.456;8.164;2023-06-14T09:28:07;99527.78;;;25.92;25.93
16777;BME280;8505;49.456;8.164;2023-06-14T09:30:36;99528.66;;;26.41;26.83
16777;BME280;8505;49.456;8.164;2023-06-14T09:33:05;99523.09;;;26.07;27.52
16777;BME280;8505;49.456;8.164;2023-06-14T09:35:34;99525.47;;;26.29;27.84
16777;BME280;8505;49.456;8.164;2023-06-14T09:38:03;99524.34;;;26.35;28.92
16777;BME280;8505;49.456;8.164;2023-06-14T09:40:34;99532.28;;;26.16;27.41
16777;BME280;8505;49.456;8.164;2023-06-14T09:43:05;99537.88;;;25.66;27.59
16777;BME280;8505;49.456;8.164;2023-06-14T09:45:33;99524.84;;;26.42;26.55
16777;BME280;8505;49.456;8.164;2023-06-14T09:48:02;99526.63;;;26.62;26.58
16777;BME280;8505;49.456;8.164;2023-06-14T09:50:35;99520.63;;;26.11;28.47
16777;BME280;8505;49.456;8.164;2023-06-14T09:53:06;99522.72;;;26.34;27.56
16777;BME280;8505;49.456;8.164;2023-06-14T09:55:36;99535.78;;;26.76;27.13
16777;BME280;8505;49.456;8.164;2023-06-14T09:58:06;99527.59;;;26.81;27.04
16777;BME280;8505;49.456;8.164;2023-06-14T10:00:36;99525.19;;;26.75;26.92
16777;BME280;8505;49.456;8.164;2023-06-14T10:03:10;99533.09;;;26.12;28.01
16777;BME280;8505;49.456;8.164;2023-06-14T10:05:43;99537.22;;;26.09;28.89
16777;BME280;8505;49.456;8.164;2023-06-14T10:08:14;99536.09;;;26.15;28.50
16777;BME280;8505;49.456;8.164;2023-06-14T10:10:43;99531.03;;;26.97;27.37
16777;BME280;8505;49.456;8.164;2023-06-14T10:13:12;99532.47;;;26.40;27.72
16777;BME280;8505;49.456;8.164;2023-06-14T10:15:45;99525.34;;;26.49;27.56
16777;BME280;8505;49.456;8.164;2023-06-14T10:18:24;99515.44;;;27.08;27.01
16777;BME280;8505;49.456;8.164;2023-06-14T10:21:04;99525.94;;;26.90;26.66
16777;BME280;8505;49.456;8.164;2023-06-14T10:23:37;99528.34;;;27.26;26.85
16777;BME280;8505;49.456;8.164;2023-06-14T10:26:18;99528.72;;;26.31;26.88
16777;BME280;8505;49.456;8.164;2023-06-14T10:28:55;99531.81;;;27.31;25.61
16777;BME280;8505;49.456;8.164;2023-06-14T10:31:40;99531.06;;;26.87;26.44
16777;BME280;8505;49.456;8.164;2023-06-14T10:34:08;99527.72;;;26.61;26.27
16777;BME280;8505;49.456;8.164;2023-06-14T10:36:41;99514.44;;;26.54;26.56
16777;BME280;8505;49.456;8.164;2023-06-14T10:39:14;99523.06;;;27.06;26.44
16777;BME280;8505;49.456;8.164;2023-06-14T10:41:51;99523.88;;;27.06;26.03
16777;BME280;8505;49.456;8.164;2023-06-14T10:44:39;99521.31;;;26.91;26.08
16777;BME280;8505;49.456;8.164;2023-06-14T10:47:08;99521.09;;;26.23;27.84
16777;BME280;8505;49.456;8.164;2023-06-14T10:49:41;99525.03;;;27.00;26.81
16777;BME280;8505;49.456;8.164;2023-06-14T10:52:12;99519.69;;;26.80;25.65
16777;BME280;8505;49.456;8.164;2023-06-14T10:55:04;99526.00;;;27.14;26.06
16777;BME280;8505;49.456;8.164;2023-06-14T10:57:36;99524.59;;;27.74;25.79
16777;BME280;8505;49.456;8.164;2023-06-14T11:00:19;99525.13;;;26.90;25.78
16777;BME280;8505;49.456;8.164;2023-06-14T11:06:14;99520.16;;;26.97;25.47
16777;BME280;8505;49.456;8.164;2023-06-14T11:09:06;99514.41;;;26.65;25.75
16777;BME280;8505;49.456;8.164;2023-06-14T11:11:42;99528.34;;;27.55;24.56
16777;BME280;8505;49.456;8.164;2023-06-14T11:14:10;99519.22;;;27.69;24.80
16777;BME280;8505;49.456;8.164;2023-06-14T11:16:38;99527.78;;;28.29;24.82
16777;BME280;8505;49.456;8.164;2023-06-14T11:19:06;99523.66;;;28.32;24.21
16777;BME280;8505;49.456;8.164;2023-06-14T11:21:34;99522.41;;;27.76;24.82
16777;BME280;8505;49.456;8.164;2023-06-14T11:24:04;99523.84;;;27.69;25.29
16777;BME280;8505;49.456;8.164;2023-06-14T11:26:32;99520.19;;;27.78;25.98
16777;BME280;8505;49.456;8.164;2023-06-14T11:29:01;99523.56;;;27.42;25.74
16777;BME280;8505;49.456;8.164;2023-06-14T11:31:29;99515.69;;;27.11;26.59
16777;BME280;8505;49.456;8.164;2023-06-14T11:33:59;99516.59;;;27.02;26.11
16777;BME280;8505;49.456;8.164;2023-06-14T11:36:27;99513.25;;;27.91;24.58
16777;BME280;8505;49.456;8.164;2023-06-14T11:39:00;99522.28;;;27.63;25.33
16777;BME280;8505;49.456;8.164;2023-06-14T11:41:35;99518.78;;;28.29;24.76
16777;BME280;8505;49.456;8.164;2023-06-14T11:44:04;99518.06;;;28.42;25.12
16777;BME280;8505;49.456;8.164;2023-06-14T11:46:32;99516.84;;;27.63;25.43
16777;BME280;8505;49.456;8.164;2023-06-14T11:49:01;99515.25;;;28.28;23.75
16777;BME280;8505;49.456;8.164;2023-06-14T11:51:32;99501.06;;;28.31;23.54
16777;BME280;8505;49.456;8.164;2023-06-14T11:54:00;99506.72;;;28.72;24.48
16777;BME280;8505;49.456;8.164;2023-06-14T11:56:29;99515.81;;;26.96;24.13
16777;BME280;8505;49.456;8.164;2023-06-14T11:58:59;99505.16;;;27.62;25.43
16777;BME280;8505;49.456;8.164;2023-06-14T12:01:29;99511.16;;;28.31;23.89
16777;BME280;8505;49.456;8.164;2023-06-14T12:03:59;99509.22;;;28.69;23.38
16777;BME280;8505;49.456;8.164;2023-06-14T12:06:28;99505.59;;;29.43;22.58
16777;BME280;8505;49.456;8.164;2023-06-14T12:09:03;99497.28;;;29.48;22.10
16777;BME280;8505;49.456;8.164;2023-06-14T12:11:34;99493.19;;;28.48;22.73
16777;BME280;8505;49.456;8.164;2023-06-14T12:14:05;99495.66;;;29.47;22.52
16777;BME280;8505;49.456;8.164;2023-06-14T12:16:34;99504.97;;;28.63;22.30
16777;BME280;8505;49.456;8.164;2023-06-14T12:19:09;99511.63;;;27.90;23.54
16777;BME280;8505;49.456;8.164;2023-06-14T12:21:38;99496.63;;;29.24;22.51
16777;BME280;8505;49.456;8.164;2023-06-14T12:24:07;99504.78;;;29.56;22.91
16777;BME280;8505;49.456;8.164;2023-06-14T12:26:39;99487.88;;;29.08;22.92
16777;BME280;8505;49.456;8.164;2023-06-14T12:29:09;99488.44;;;29.24;22.88
16777;BME280;8505;49.456;8.164;2023-06-14T12:31:39;99483.34;;;29.63;22.49
16777;BME280;8505;49.456;8.164;2023-06-14T12:34:07;99495.66;;;29.47;22.94
16777;BME280;8505;49.456;8.164;2023-06-14T12:36:35;99487.38;;;30.21;21.62
16777;BME280;8505;49.456;8.164;2023-06-14T12:39:08;99498.19;;;29.57;22.00
16777;BME280;8505;49.456;8.164;2023-06-14T12:41:36;99482.00;;;30.29;21.33
16777;BME280;8505;49.456;8.164;2023-06-14T12:44:04;99504.34;;;29.35;22.24
16777;BME280;8505;49.456;8.164;2023-06-14T12:46:34;99503.41;;;27.95;23.70
16777;BME280;8505;49.456;8.164;2023-06-14T12:49:03;99495.09;;;28.48;23.68
16777;BME280;8505;49.456;8.164;2023-06-14T12:51:31;99487.34;;;28.92;23.55
16777;BME280;8505;49.456;8.164;2023-06-14T12:53:59;99497.84;;;29.91;22.79
16777;BME280;8505;49.456;8.164;2023-06-14T12:56:28;99500.31;;;28.63;23.92
16777;BME280;8505;49.456;8.164;2023-06-14T12:58:56;99493.69;;;28.88;23.77
16777;BME280;8505;49.456;8.164;2023-06-14T13:01:24;99495.94;;;29.00;23.48
16777;BME280;8505;49.456;8.164;2023-06-14T13:03:53;99492.59;;;29.03;23.22
16777;BME280;8505;49.456;8.164;2023-06-14T13:06:21;99498.78;;;29.08;23.23
16777;BME280;8505;49.456;8.164;2023-06-14T13:08:49;99487.09;;;28.70;24.34
16777;BME280;8505;49.456;8.164;2023-06-14T13:11:17;99496.59;;;29.70;23.06
16777;BME280;8505;49.456;8.164;2023-06-14T13:13:45;99504.88;;;29.38;23.48
16777;BME280;8505;49.456;8.164;2023-06-14T13:16:13;99498.63;;;29.18;24.21
16777;BME280;8505;49.456;8.164;2023-06-14T13:18:41;99494.69;;;29.98;22.92
16777;BME280;8505;49.456;8.164;2023-06-14T13:21:10;99493.88;;;29.56;23.41
16777;BME280;8505;49.456;8.164;2023-06-14T13:23:38;99488.97;;;28.56;23.67
16777;BME280;8505;49.456;8.164;2023-06-14T13:26:06;99501.63;;;28.47;24.72